sensor_id;sensor_type;location;lat;lon;timestamp;P1;durP1;ratioP1;P2;durP2;ratioP2
33714;SDS011;20043;50.998;4.754;2022-10-17T00:00:40;10.20;;;7.20;;
33714;SDS011;20043;50.998;4.754;2022-10-17T00:03:06;12.82;;;6.88;;
33714;SDS011;20043;50.998;4.754;2022-10-17T00:05:32;9.57;;;7.13;;
33714;SDS011;20043;50.998;4.754;2022-10-17T00:07:58;9.75;;;7.45;;
33714;SDS011;20043;50.998;4.754;2022-10-17T00:10:23;14.73;;;7.95;;
33714;SDS011;20043;50.998;4.754;2022-10-17T00:12:49;13.15;;;8.57;;
33714;SDS011;20043;50.998;4.754;2022-10-17T00:15:16;10.45;;;7.50;;
33714;SDS011;20043;50.998;4.754;2022-10-17T00:17:43;11.15;;;7.90;;
33714;SDS011;20043;50.998;4.754;2022-10-17T00:20:09;12.95;;;7.80;;
33714;SDS011;20043;50.998;4.754;2022-10-17T00:22:35;17.75;;;8.32;;
33714;SDS011;20043;50.998;4.754;2022-10-17T00:25:01;10.27;;;7.97;;
33714;SDS011;20043;50.998;4.754;2022-10-17T00:27:27;13.27;;;7.95;;
33714;SDS011;20043;50.998;4.754;2022-10-17T00:29:52;9.88;;;8.43;;
33714;SDS011;20043;50.998;4.754;2022-10-17T00:32:18;13.57;;;8.43;;
33714;SDS011;20043;50.998;4.754;2022-10-17T00:34:44;15.15;;;8.18;;
33714;SDS011;20043;50.998;4.754;2022-10-17T00:37:10;13.27;;;8.57;;
33714;SDS011;20043;50.998;4.754;2022-10-17T00:39:35;14.05;;;8.63;;
33714;SDS011;20043;50.998;4.754;2022-10-17T00:42:01;12.32;;;7.97;;
33714;SDS011;20043;50.998;4.754;2022-10-17T00:46:56;18.05;;;8.27;;
33714;SDS011;20043;50.998;4.754;2022-10-17T00:49:22;16.25;;;8.50;;
33714;SDS011;20043;50.998;4.754;2022-10-17T00:51:57;11.82;;;9.02;;
33714;SDS011;20043;50.998;4.754;2022-10-17T00:54:29;15.55;;;9.00;;
33714;SDS011;20043;50.998;4.754;2022-10-17T00:56:57;19.35;;;10.23;;
33714;SDS011;20043;50.998;4.754;2022-10-17T00:59:24;14.43;;;8.70;;
33714;SDS011;20043;50.998;4.754;2022-10-17T01:01:52;16.88;;;8.40;;
33714;SDS011;20043;50.998;4.754;2022-10-17T01:04:34;18.30;;;8.73;;
33714;SDS011;20043;50.998;4.754;2022-10-17T01:07:01;14.93;;;8.82;;
33714;SDS011;20043;50.998;4.754;2022-10-17T01:09:27;15.27;;;8.48;;
33714;SDS011;20043;50.998;4.754;2022-10-17T01:22:36;10.88;;;7.90;;
33714;SDS011;20043;50.998;4.754;2022-10-17T01:25:28;13.55;;;8.27;;
33714;SDS011;20043;50.998;4.754;2022-10-17T01:28:45;12.88;;;7.95;;
33714;SDS011;20043;50.998;4.754;2022-10-17T01:31:29;14.73;;;8.25;;
33714;SDS011;20043;50.998;4.754;2022-10-17T01:45:13;15.35;;;8.10;;
33714;SDS011;20043;50.998;4.754;2022-10-17T01:47:43;11.02;;;8.27;;
33714;SDS011;20043;50.998;4.754;2022-10-17T01:50:13;15.00;;;8.15;;
33714;SDS011;20043;50.998;4.754;2022-10-17T01:52:45;14.38;;;8.85;;
33714;SDS011;20043;50.998;4.754;2022-10-17T01:55:27;19.15;;;9.07;;
33714;SDS011;20043;50.998;4.754;2022-10-17T01:57:58;12.18;;;9.65;;
33714;SDS011;20043;50.998;4.754;2022-10-17T02:00:35;22.08;;;9.43;;
33714;SDS011;20043;50.998;4.754;2022-10-17T02:03:03;16.63;;;9.90;;
33714;SDS011;20043;50.998;4.754;2022-10-17T02:05:35;12.73;;;9.40;;
33714;SDS011;20043;50.998;4.754;2022-10-17T02:08:03;14.73;;;9.75;;
33714;SDS011;20043;50.998;4.754;2022-10-17T02:13:14;14.57;;;9.95;;
33714;SDS011;20043;50.998;4.754;2022-10-17T02:18:32;18.98;;;9.15;;
33714;SDS011;20043;50.998;4.754;2022-10-17T02:26:36;13.20;;;9.68;;
33714;SDS011;20043;50.998;4.754;2022-10-17T02:29:35;15.32;;;9.82;;
33714;SDS011;20043;50.998;4.754;2022-10-17T02:32:10;16.83;;;9.82;;
33714;SDS011;20043;50.998;4.754;2022-10-17T02:35:00;13.52;;;9.68;;
33714;SDS011;20043;50.998;4.754;2022-10-17T02:37:29;17.75;;;9.13;;
33714;SDS011;20043;50.998;4.754;2022-10-17T02:39:57;15.77;;;8.88;;
33714;SDS011;20043;50.998;4.754;2022-10-17T02:42:24;18.67;;;8.75;;
33714;SDS011;20043;50.998;4.754;2022-10-17T02:44:51;17.27;;;8.82;;
33714;SDS011;20043;50.998;4.754;2022-10-17T02:47:22;12.40;;;8.77;;
33714;SDS011;20043;50.998;4.754;2022-10-17T02:49:52;11.50;;;8.32;;
33714;SDS011;20043;50.998;4.754;2022-10-17T02:52:33;11.25;;;7.78;;
33714;SDS011;20043;50.998;4.754;2022-10-17T02:55:18;16.38;;;8.32;;
33714;SDS011;20043;50.998;4.754;2022-10-17T02:57:54;16.02;;;7.97;;
33714;SDS011;20043;50.998;4.754;2022-10-17T03:00:24;12.27;;;8.27;;
33714;SDS011;20043;50.998;4.754;2022-10-17T03:02:52;9.15;;;7.88;;
33714;SDS011;20043;50.998;4.754;2022-10-17T03:05:20;13.15;;;8.10;;
33714;SDS011;20043;50.998;4.754;2022-10-17T03:07:46;14.82;;;7.50;;
33714;SDS011;20043;50.998;4.754;2022-10-17T03:10:11;16.48;;;7.90;;
33714;SDS011;20043;50.998;4.754;2022-10-17T03:12:37;15.75;;;7.43;;
33714;SDS011;20043;50.998;4.754;2022-10-17T03:15:03;12.65;;;7.47;;
33714;SDS011;20043;50.998;4.754;2022-10-17T03:17:29;15.43;;;6.93;;
33714;SDS011;20043;50.998;4.754;2022-10-17T03:19:54;11.60;;;7.32;;
33714;SDS011;20043;50.998;4.754;2022-10-17T03:22:20;10.40;;;6.70;;
33714;SDS011;20043;50.998;4.754;2022-10-17T03:24:46;10.88;;;6.35;;
33714;SDS011;20043;50.998;4.754;2022-10-17T03:27:11;14.48;;;6.65;;
33714;SDS011;20043;50.998;4.754;2022-10-17T03:29:37;13.68;;;6.68;;
33714;SDS011;20043;50.998;4.754;2022-10-17T03:32:02;13.77;;;6.65;;
33714;SDS011;20043;50.998;4.754;2022-10-17T03:34:28;9.20;;;6.38;;
33714;SDS011;20043;50.998;4.754;2022-10-17T03:36:54;10.73;;;6.82;;
33714;SDS011;20043;50.998;4.754;2022-10-17T03:39:19;8.10;;;6.88;;
33714;SDS011;20043;50.998;4.754;2022-10-17T03:41:45;11.23;;;6.30;;
33714;SDS011;20043;50.998;4.754;2022-10-17T03:44:11;12.70;;;5.95;;
33714;SDS011;20043;50.998;4.754;2022-10-17T03:46:36;14.20;;;6.55;;
33714;SDS011;20043;50.998;4.754;2022-10-17T03:49:02;11.25;;;6.40;;
33714;SDS011;20043;50.998;4.754;2022-10-17T03:51:27;9.90;;;6.00;;
33714;SDS011;20043;50.998;4.754;2022-10-17T03:53:53;16.73;;;7.10;;
33714;SDS011;20043;50.998;4.754;2022-10-17T03:56:20;9.40;;;6.25;;
33714;SDS011;20043;50.998;4.754;2022-10-17T03:58:47;10.10;;;6.10;;
33714;SDS011;20043;50.998;4.754;2022-10-17T04:01:14;9.38;;;5.80;;
33714;SDS011;20043;50.998;4.754;2022-10-17T04:03:41;8.38;;;6.10;;
33714;SDS011;20043;50.998;4.754;2022-10-17T04:06:07;9.32;;;5.75;;
33714;SDS011;20043;50.998;4.754;2022-10-17T04:08:36;10.30;;;6.28;;
33714;SDS011;20043;50.998;4.754;2022-10-17T04:11:03;7.53;;;6.22;;
33714;SDS011;20043;50.998;4.754;2022-10-17T04:13:31;9.02;;;5.93;;
33714;SDS011;20043;50.998;4.754;2022-10-17T04:15:58;9.40;;;5.20;;
33714;SDS011;20043;50.998;4.754;2022-10-17T04:18:29;11.65;;;5.95;;
33714;SDS011;20043;50.998;4.754;2022-10-17T04:20:54;12.40;;;5.70;;
33714;SDS011;20043;50.998;4.754;2022-10-17T04:23:20;7.00;;;5.45;;
33714;SDS011;20043;50.998;4.754;2022-10-17T04:25:46;9.75;;;5.72;;
33714;SDS011;20043;50.998;4.754;2022-10-17T04:28:11;8.60;;;5.95;;
33714;SDS011;20043;50.998;4.754;2022-10-17T04:30:37;9.38;;;6.03;;
33714;SDS011;20043;50.998;4.754;2022-10-17T04:33:03;10.98;;;6.03;;
33714;SDS011;20043;50.998;4.754;2022-10-17T04:35:29;6.90;;;5.30;;
33714;SDS011;20043;50.998;4.754;2022-10-17T04:37:54;11.73;;;5.55;;
33714;SDS011;20043;50.998;4.754;2022-10-17T04:40:20;12.38;;;6.22;;
33714;SDS011;20043;50.998;4.754;2022-10-17T04:42:45;11.95;;;6.30;;
33714;SDS011;20043;50.998;4.754;2022-10-17T04:45:11;10.73;;;6.00;;
33714;SDS011;20043;50.998;4.754;2022-10-17T04:47:37;11.77;;;5.82;;
33714;SDS011;20043;50.998;4.754;2022-10-17T04:50:02;12.63;;;6.03;;
33714;SDS011;20043;50.998;4.754;2022-10-17T04:52:29;13.88;;;5.53;;
33714;SDS011;20043;50.998;4.754;2022-10-17T04:54:55;11.90;;;6.00;;
33714;SDS011;20043;50.998;4.754;2022-10-17T04:57:21;13.73;;;5.57;;
33714;SDS011;20043;50.998;4.754;2022-10-17T04:59:47;10.93;;;6.07;;
33714;SDS011;20043;50.998;4.754;2022-10-17T05:02:13;9.52;;;5.35;;
33714;SDS011;20043;50.998;4.754;2022-10-17T05:04:39;10.35;;;5.55;;
33714;SDS011;20043;50.998;4.754;2022-10-17T05:07:04;7.63;;;5.43;;
33714;SDS011;20043;50.998;4.754;2022-10-17T05:09:30;10.15;;;5.35;;
33714;SDS011;20043;50.998;4.754;2022-10-17T05:11:56;12.77;;;5.28;;
33714;SDS011;20043;50.998;4.754;2022-10-17T05:14:21;12.52;;;5.40;;
33714;SDS011;20043;50.998;4.754;2022-10-17T05:16:47;12.52;;;5.70;;
33714;SDS011;20043;50.998;4.754;2022-10-17T05:19:12;6.40;;;5.05;;
33714;SDS011;20043;50.998;4.754;2022-10-17T05:21:38;7.97;;;4.88;;
33714;SDS011;20043;50.998;4.754;2022-10-17T05:24:04;11.80;;;5.43;;
33714;SDS011;20043;50.998;4.754;2022-10-17T05:26:31;7.50;;;4.90;;
33714;SDS011;20043;50.998;4.754;2022-10-17T05:28:58;7.20;;;5.40;;
33714;SDS011;20043;50.998;4.754;2022-10-17T05:31:26;8.30;;;4.93;;
33714;SDS011;20043;50.998;4.754;2022-10-17T05:33:52;6.57;;;4.60;;
33714;SDS011;20043;50.998;4.754;2022-10-17T05:36:19;9.13;;;5.00;;
33714;SDS011;20043;50.998;4.754;2022-10-17T05:38:48;12.25;;;5.50;;
33714;SDS011;20043;50.998;4.754;2022-10-17T05:41:16;9.02;;;5.13;;
33714;SDS011;20043;50.998;4.754;2022-10-17T05:43:42;6.82;;;4.97;;
33714;SDS011;20043;50.998;4.754;2022-10-17T05:46:08;9.88;;;4.75;;
33714;SDS011;20043;50.998;4.754;2022-10-17T05:48:34;10.38;;;5.35;;
33714;SDS011;20043;50.998;4.754;2022-10-17T05:51:01;12.00;;;5.45;;
33714;SDS011;20043;50.998;4.754;2022-10-17T05:53:32;10.80;;;5.07;;
33714;SDS011;20043;50.998;4.754;2022-10-17T05:55:59;11.80;;;5.15;;
33714;SDS011;20043;50.998;4.754;2022-10-17T05:58:26;15.98;;;5.00;;
33714;SDS011;20043;50.998;4.754;2022-10-17T06:00:56;14.10;;;5.78;;
33714;SDS011;20043;50.998;4.754;2022-10-17T06:03:22;20.27;;;5.75;;
33714;SDS011;20043;50.998;4.754;2022-10-17T06:05:48;11.23;;;5.20;;
33714;SDS011;20043;50.998;4.754;2022-10-17T06:08:13;14.18;;;5.63;;
33714;SDS011;20043;50.998;4.754;2022-10-17T06:10:39;12.60;;;5.30;;
33714;SDS011;20043;50.998;4.754;2022-10-17T06:13:04;9.48;;;5.15;;
33714;SDS011;20043;50.998;4.754;2022-10-17T06:15:30;12.65;;;4.47;;
33714;SDS011;20043;50.998;4.754;2022-10-17T06:17:55;6.40;;;5.05;;
33714;SDS011;20043;50.998;4.754;2022-10-17T06:20:21;8.90;;;4.50;;
33714;SDS011;20043;50.998;4.754;2022-10-17T06:22:46;12.43;;;4.80;;
33714;SDS011;20043;50.998;4.754;2022-10-17T06:25:12;11.98;;;4.90;;
33714;SDS011;20043;50.998;4.754;2022-10-17T06:27:38;7.93;;;4.50;;
33714;SDS011;20043;50.998;4.754;2022-10-17T06:30:04;11.25;;;4.97;;
33714;SDS011;20043;50.998;4.754;2022-10-17T06:32:30;15.05;;;4.90;;
33714;SDS011;20043;50.998;4.754;2022-10-17T06:34:55;9.95;;;4.38;;
33714;SDS011;20043;50.998;4.754;2022-10-17T06:37:21;12.02;;;4.70;;
33714;SDS011;20043;50.998;4.754;2022-10-17T06:39:47;13.60;;;4.60;;
33714;SDS011;20043;50.998;4.754;2022-10-17T06:42:12;7.32;;;4.00;;
33714;SDS011;20043;50.998;4.754;2022-10-17T06:44:38;13.43;;;4.38;;
33714;SDS011;20043;50.998;4.754;2022-10-17T06:47:04;7.70;;;4.20;;
33714;SDS011;20043;50.998;4.754;2022-10-17T06:49:30;9.88;;;4.30;;
33714;SDS011;20043;50.998;4.754;2022-10-17T06:51:58;9.55;;;4.45;;
33714;SDS011;20043;50.998;4.754;2022-10-17T06:54:24;5.93;;;4.22;;
33714;SDS011;20043;50.998;4.754;2022-10-17T06:56:49;9.05;;;4.50;;
33714;SDS011;20043;50.998;4.754;2022-10-17T06:59:15;9.32;;;3.92;;
33714;SDS011;20043;50.998;4.754;2022-10-17T07:01:40;10.73;;;4.15;;
33714;SDS011;20043;50.998;4.754;2022-10-17T07:04:06;6.30;;;3.90;;
33714;SDS011;20043;50.998;4.754;2022-10-17T07:06:32;11.68;;;4.00;;
33714;SDS011;20043;50.998;4.754;2022-10-17T07:08:58;10.70;;;4.10;;
33714;SDS011;20043;50.998;4.754;2022-10-17T07:11:25;9.82;;;4.10;;
33714;SDS011;20043;50.998;4.754;2022-10-17T07:13:50;8.77;;;4.10;;
33714;SDS011;20043;50.998;4.754;2022-10-17T07:16:16;10.10;;;4.15;;
33714;SDS011;20043;50.998;4.754;2022-10-17T07:18:42;7.85;;;3.72;;
33714;SDS011;20043;50.998;4.754;2022-10-17T07:21:08;8.55;;;3.83;;
33714;SDS011;20043;50.998;4.754;2022-10-17T07:23:34;14.07;;;4.20;;
33714;SDS011;20043;50.998;4.754;2022-10-17T07:26:02;9.80;;;3.97;;
33714;SDS011;20043;50.998;4.754;2022-10-17T07:28:33;11.60;;;3.60;;
33714;SDS011;20043;50.998;4.754;2022-10-17T07:31:07;10.70;;;3.80;;
33714;SDS011;20043;50.998;4.754;2022-10-17T07:33:42;6.68;;;3.88;;
33714;SDS011;20043;50.998;4.754;2022-10-17T07:36:08;9.27;;;3.85;;
33714;SDS011;20043;50.998;4.754;2022-10-17T07:38:35;7.75;;;3.85;;
33714;SDS011;20043;50.998;4.754;2022-10-17T07:41:02;7.13;;;3.53;;
33714;SDS011;20043;50.998;4.754;2022-10-17T07:43:29;12.48;;;4.15;;
33714;SDS011;20043;50.998;4.754;2022-10-17T07:45:55;9.63;;;3.55;;
33714;SDS011;20043;50.998;4.754;2022-10-17T07:48:22;11.90;;;4.32;;
33714;SDS011;20043;50.998;4.754;2022-10-17T07:50:48;11.20;;;4.20;;
33714;SDS011;20043;50.998;4.754;2022-10-17T07:53:15;7.63;;;4.05;;
33714;SDS011;20043;50.998;4.754;2022-10-17T07:55:41;10.90;;;4.03;;
33714;SDS011;20043;50.998;4.754;2022-10-17T07:58:08;9.68;;;4.32;;
33714;SDS011;20043;50.998;4.754;2022-10-17T08:00:35;10.25;;;3.67;;
33714;SDS011;20043;50.998;4.754;2022-10-17T08:03:01;15.75;;;4.32;;
33714;SDS011;20043;50.998;4.754;2022-10-17T08:05:27;10.23;;;4.82;;
33714;SDS011;20043;50.998;4.754;2022-10-17T08:07:54;10.65;;;3.75;;
33714;SDS011;20043;50.998;4.754;2022-10-17T08:10:20;8.27;;;3.72;;
33714;SDS011;20043;50.998;4.754;2022-10-17T08:12:51;8.35;;;4.00;;
33714;SDS011;20043;50.998;4.754;2022-10-17T08:15:17;8.60;;;4.30;;
33714;SDS011;20043;50.998;4.754;2022-10-17T08:17:43;9.55;;;3.90;;
33714;SDS011;20043;50.998;4.754;2022-10-17T08:20:09;6.97;;;3.50;;
33714;SDS011;20043;50.998;4.754;2022-10-17T08:22:35;7.40;;;3.97;;
33714;SDS011;20043;50.998;4.754;2022-10-17T08:25:00;4.78;;;3.58;;
33714;SDS011;20043;50.998;4.754;2022-10-17T08:27:26;6.70;;;3.30;;
33714;SDS011;20043;50.998;4.754;2022-10-17T08:29:53;8.30;;;3.65;;
33714;SDS011;20043;50.998;4.754;2022-10-17T08:32:19;8.82;;;3.58;;
33714;SDS011;20043;50.998;4.754;2022-10-17T08:34:45;9.27;;;4.13;;
33714;SDS011;20043;50.998;4.754;2022-10-17T08:37:11;7.72;;;4.35;;
33714;SDS011;20043;50.998;4.754;2022-10-17T08:39:40;11.90;;;4.60;;
33714;SDS011;20043;50.998;4.754;2022-10-17T08:45:15;23.98;;;6.53;;
33714;SDS011;20043;50.998;4.754;2022-10-17T08:48:03;16.35;;;6.00;;
33714;SDS011;20043;50.998;4.754;2022-10-17T08:55:53;16.58;;;5.63;;
33714;SDS011;20043;50.998;4.754;2022-10-17T08:58:20;20.85;;;7.47;;
33714;SDS011;20043;50.998;4.754;2022-10-17T09:00:49;8.63;;;5.40;;
33714;SDS011;20043;50.998;4.754;2022-10-17T09:08:38;12.63;;;6.25;;
33714;SDS011;20043;50.998;4.754;2022-10-17T09:11:16;13.40;;;5.90;;
33714;SDS011;20043;50.998;4.754;2022-10-17T09:19:58;21.10;;;8.15;;
33714;SDS011;20043;50.998;4.754;2022-10-17T09:22:29;13.82;;;5.82;;
33714;SDS011;20043;50.998;4.754;2022-10-17T09:25:23;11.77;;;5.90;;
33714;SDS011;20043;50.998;4.754;2022-10-17T09:27:53;16.42;;;6.13;;
33714;SDS011;20043;50.998;4.754;2022-10-17T09:32:54;10.18;;;5.38;;
33714;SDS011;20043;50.998;4.754;2022-10-17T09:35:20;9.45;;;5.82;;
33714;SDS011;20043;50.998;4.754;2022-10-17T09:37:48;14.82;;;6.63;;
33714;SDS011;20043;50.998;4.754;2022-10-17T09:40:23;12.90;;;6.35;;
33714;SDS011;20043;50.998;4.754;2022-10-17T09:42:51;10.20;;;6.35;;
33714;SDS011;20043;50.998;4.754;2022-10-17T09:50:28;13.90;;;7.88;;
33714;SDS011;20043;50.998;4.754;2022-10-17T09:52:55;14.60;;;8.13;;
33714;SDS011;20043;50.998;4.754;2022-10-17T09:55:42;13.88;;;7.65;;
33714;SDS011;20043;50.998;4.754;2022-10-17T09:58:11;11.35;;;7.15;;
33714;SDS011;20043;50.998;4.754;2022-10-17T10:00:38;15.90;;;8.02;;
33714;SDS011;20043;50.998;4.754;2022-10-17T10:05:37;15.30;;;8.18;;
33714;SDS011;20043;50.998;4.754;2022-10-17T10:08:13;16.05;;;8.93;;
33714;SDS011;20043;50.998;4.754;2022-10-17T10:10:41;14.63;;;8.57;;
33714;SDS011;20043;50.998;4.754;2022-10-17T10:15:40;19.10;;;8.77;;
33714;SDS011;20043;50.998;4.754;2022-10-17T10:18:27;18.90;;;9.88;;
33714;SDS011;20043;50.998;4.754;2022-10-17T10:23:33;12.10;;;8.27;;
33714;SDS011;20043;50.998;4.754;2022-10-17T10:26:05;13.73;;;8.38;;
33714;SDS011;20043;50.998;4.754;2022-10-17T10:28:49;17.85;;;9.27;;
33714;SDS011;20043;50.998;4.754;2022-10-17T10:31:23;16.95;;;8.80;;
33714;SDS011;20043;50.998;4.754;2022-10-17T10:34:02;15.85;;;8.45;;
33714;SDS011;20043;50.998;4.754;2022-10-17T10:37:01;15.45;;;8.95;;
33714;SDS011;20043;50.998;4.754;2022-10-17T10:39:31;12.30;;;8.82;;
33714;SDS011;20043;50.998;4.754;2022-10-17T10:42:01;18.42;;;9.30;;
33714;SDS011;20043;50.998;4.754;2022-10-17T10:44:30;18.00;;;8.60;;
33714;SDS011;20043;50.998;4.754;2022-10-17T10:49:41;16.60;;;9.27;;
33714;SDS011;20043;50.998;4.754;2022-10-17T10:52:09;16.17;;;8.63;;
33714;SDS011;20043;50.998;4.754;2022-10-17T10:55:08;14.63;;;8.52;;
33714;SDS011;20043;50.998;4.754;2022-10-17T10:57:51;16.10;;;7.50;;
33714;SDS011;20043;50.998;4.754;2022-10-17T11:00:23;12.02;;;7.45;;
33714;SDS011;20043;50.998;4.754;2022-10-17T11:03:00;12.77;;;7.72;;
33714;SDS011;20043;50.998;4.754;2022-10-17T11:08:16;12.15;;;8.20;;
33714;SDS011;20043;50.998;4.754;2022-10-17T11:11:05;15.38;;;8.32;;
33714;SDS011;20043;50.998;4.754;2022-10-17T11:13:42;19.40;;;9.15;;
33714;SDS011;20043;50.998;4.754;2022-10-17T11:21:40;19.15;;;8.38;;
33714;SDS011;20043;50.998;4.754;2022-10-17T11:24:14;13.88;;;8.25;;
33714;SDS011;20043;50.998;4.754;2022-10-17T11:26:56;16.33;;;8.88;;
33714;SDS011;20043;50.998;4.754;2022-10-17T11:29:26;13.68;;;8.43;;
33714;SDS011;20043;50.998;4.754;2022-10-17T11:31:53;14.95;;;8.30;;
33714;SDS011;20043;50.998;4.754;2022-10-17T11:34:26;16.80;;;7.82;;
33714;SDS011;20043;50.998;4.754;2022-10-17T11:36:58;14.60;;;8.32;;
33714;SDS011;20043;50.998;4.754;2022-10-17T11:42:30;15.50;;;8.77;;
33714;SDS011;20043;50.998;4.754;2022-10-17T11:45:08;15.07;;;8.13;;
33714;SDS011;20043;50.998;4.754;2022-10-17T11:47:44;17.90;;;9.20;;
33714;SDS011;20043;50.998;4.754;2022-10-17T11:50:33;15.07;;;9.32;;
33714;SDS011;20043;50.998;4.754;2022-10-17T11:55:35;15.43;;;9.63;;
33714;SDS011;20043;50.998;4.754;2022-10-17T12:00:57;15.43;;;9.80;;
33714;SDS011;20043;50.998;4.754;2022-10-17T12:14:34;14.75;;;9.18;;
33714;SDS011;20043;50.998;4.754;2022-10-17T12:17:03;18.30;;;9.07;;
33714;SDS011;20043;50.998;4.754;2022-10-17T12:19:31;13.70;;;9.57;;
33714;SDS011;20043;50.998;4.754;2022-10-17T12:22:01;16.73;;;8.65;;
33714;SDS011;20043;50.998;4.754;2022-10-17T12:24:53;16.02;;;8.63;;
33714;SDS011;20043;50.998;4.754;2022-10-17T12:33:01;18.90;;;9.02;;
33714;SDS011;20043;50.998;4.754;2022-10-17T12:35:45;13.10;;;8.23;;
33714;SDS011;20043;50.998;4.754;2022-10-17T12:38:24;18.35;;;8.13;;
33714;SDS011;20043;50.998;4.754;2022-10-17T12:40:52;14.55;;;8.65;;
33714;SDS011;20043;50.998;4.754;2022-10-17T12:46:00;16.67;;;8.87;;
33714;SDS011;20043;50.998;4.754;2022-10-17T12:51:08;21.02;;;9.88;;
33714;SDS011;20043;50.998;4.754;2022-10-17T12:56:10;21.60;;;9.80;;
33714;SDS011;20043;50.998;4.754;2022-10-17T12:58:54;13.93;;;9.15;;
33714;SDS011;20043;50.998;4.754;2022-10-17T13:01:26;17.65;;;9.32;;
33714;SDS011;20043;50.998;4.754;2022-10-17T13:03:54;15.93;;;9.43;;
33714;SDS011;20043;50.998;4.754;2022-10-17T13:06:26;18.83;;;9.70;;
33714;SDS011;20043;50.998;4.754;2022-10-17T13:09:04;25.77;;;10.13;;
33714;SDS011;20043;50.998;4.754;2022-10-17T13:14:10;19.20;;;9.77;;
33714;SDS011;20043;50.998;4.754;2022-10-17T13:16:38;17.90;;;9.50;;
33714;SDS011;20043;50.998;4.754;2022-10-17T13:19:15;13.32;;;9.93;;
33714;SDS011;20043;50.998;4.754;2022-10-17T13:21:52;14.98;;;10.10;;
33714;SDS011;20043;50.998;4.754;2022-10-17T13:24:30;16.50;;;9.43;;
33714;SDS011;20043;50.998;4.754;2022-10-17T13:26:57;15.57;;;10.35;;
33714;SDS011;20043;50.998;4.754;2022-10-17T13:29:23;15.48;;;9.77;;
33714;SDS011;20043;50.998;4.754;2022-10-17T13:31:54;18.48;;;9.95;;
33714;SDS011;20043;50.998;4.754;2022-10-17T13:34:24;18.02;;;9.82;;
33714;SDS011;20043;50.998;4.754;2022-10-17T13:36:55;14.75;;;9.45;;
33714;SDS011;20043;50.998;4.754;2022-10-17T13:39:27;13.85;;;9.35;;
33714;SDS011;20043;50.998;4.754;2022-10-17T13:41:54;17.58;;;9.38;;
33714;SDS011;20043;50.998;4.754;2022-10-17T13:44:26;18.75;;;9.77;;
33714;SDS011;20043;50.998;4.754;2022-10-17T13:46:56;17.42;;;9.18;;
33714;SDS011;20043;50.998;4.754;2022-10-17T13:52:01;22.88;;;10.38;;
33714;SDS011;20043;50.998;4.754;2022-10-17T13:54:33;17.23;;;10.07;;
33714;SDS011;20043;50.998;4.754;2022-10-17T13:59:57;20.80;;;10.15;;
33714;SDS011;20043;50.998;4.754;2022-10-17T14:02:26;16.73;;;9.02;;
33714;SDS011;20043;50.998;4.754;2022-10-17T14:10:04;11.35;;;8.55;;
33714;SDS011;20043;50.998;4.754;2022-10-17T14:12:41;13.50;;;8.40;;
33714;SDS011;20043;50.998;4.754;2022-10-17T14:15:08;22.25;;;8.32;;
33714;SDS011;20043;50.998;4.754;2022-10-17T14:17:39;15.63;;;8.13;;
33714;SDS011;20043;50.998;4.754;2022-10-17T14:20:05;16.45;;;8.05;;
33714;SDS011;20043;50.998;4.754;2022-10-17T14:22:40;16.63;;;8.50;;
33714;SDS011;20043;50.998;4.754;2022-10-17T14:25:25;14.95;;;7.65;;
33714;SDS011;20043;50.998;4.754;2022-10-17T14:27:53;15.93;;;7.53;;
33714;SDS011;20043;50.998;4.754;2022-10-17T14:32:56;15.77;;;6.97;;
33714;SDS011;20043;50.998;4.754;2022-10-17T14:35:25;15.27;;;7.75;;
33714;SDS011;20043;50.998;4.754;2022-10-17T14:37:51;14.95;;;7.75;;
33714;SDS011;20043;50.998;4.754;2022-10-17T14:40:22;16.95;;;7.63;;
33714;SDS011;20043;50.998;4.754;2022-10-17T14:42:49;17.23;;;8.43;;
33714;SDS011;20043;50.998;4.754;2022-10-17T14:45:36;12.85;;;7.45;;
33714;SDS011;20043;50.998;4.754;2022-10-17T14:48:14;12.98;;;7.25;;
33714;SDS011;20043;50.998;4.754;2022-10-17T14:51:03;8.13;;;5.75;;
33714;SDS011;20043;50.998;4.754;2022-10-17T14:53:35;12.70;;;6.35;;
33714;SDS011;20043;50.998;4.754;2022-10-17T14:56:03;22.30;;;6.68;;
33714;SDS011;20043;50.998;4.754;2022-10-17T14:58:49;11.15;;;6.45;;
33714;SDS011;20043;50.998;4.754;2022-10-17T15:01:16;12.98;;;7.00;;
33714;SDS011;20043;50.998;4.754;2022-10-17T15:03:41;16.92;;;7.53;;
33714;SDS011;20043;50.998;4.754;2022-10-17T15:06:14;16.00;;;8.15;;
33714;SDS011;20043;50.998;4.754;2022-10-17T15:08:42;16.20;;;8.07;;
33714;SDS011;20043;50.998;4.754;2022-10-17T15:11:08;14.27;;;7.70;;
33714;SDS011;20043;50.998;4.754;2022-10-17T15:13:35;11.82;;;7.35;;
33714;SDS011;20043;50.998;4.754;2022-10-17T15:16:01;11.10;;;6.82;;
33714;SDS011;20043;50.998;4.754;2022-10-17T15:18:30;12.40;;;6.88;;
33714;SDS011;20043;50.998;4.754;2022-10-17T15:20:56;18.02;;;7.07;;
33714;SDS011;20043;50.998;4.754;2022-10-17T15:23:22;11.73;;;6.60;;
33714;SDS011;20043;50.998;4.754;2022-10-17T15:25:47;11.88;;;6.82;;
33714;SDS011;20043;50.998;4.754;2022-10-17T15:28:13;14.00;;;8.25;;
33714;SDS011;20043;50.998;4.754;2022-10-17T15:30:38;15.68;;;8.35;;
33714;SDS011;20043;50.998;4.754;2022-10-17T15:33:04;11.60;;;7.15;;
33714;SDS011;20043;50.998;4.754;2022-10-17T15:35:30;10.35;;;6.45;;
33714;SDS011;20043;50.998;4.754;2022-10-17T15:37:55;16.25;;;7.45;;
33714;SDS011;20043;50.998;4.754;2022-10-17T15:40:22;13.52;;;6.50;;
33714;SDS011;20043;50.998;4.754;2022-10-17T15:42:50;9.55;;;5.70;;
33714;SDS011;20043;50.998;4.754;2022-10-17T15:45:17;9.43;;;5.75;;
33714;SDS011;20043;50.998;4.754;2022-10-17T15:47:49;11.02;;;5.45;;
33714;SDS011;20043;50.998;4.754;2022-10-17T15:50:20;23.95;;;9.32;;
33714;SDS011;20043;50.998;4.754;2022-10-17T15:52:46;21.52;;;10.32;;
33714;SDS011;20043;50.998;4.754;2022-10-17T15:55:14;12.25;;;7.35;;
33714;SDS011;20043;50.998;4.754;2022-10-17T15:57:42;17.95;;;7.25;;
33714;SDS011;20043;50.998;4.754;2022-10-17T16:00:13;13.55;;;6.70;;
33714;SDS011;20043;50.998;4.754;2022-10-17T16:02:41;15.85;;;7.50;;
33714;SDS011;20043;50.998;4.754;2022-10-17T16:05:12;10.30;;;4.97;;
33714;SDS011;20043;50.998;4.754;2022-10-17T16:07:38;9.63;;;4.90;;
33714;SDS011;20043;50.998;4.754;2022-10-17T16:10:04;7.65;;;4.78;;
33714;SDS011;20043;50.998;4.754;2022-10-17T16:12:30;11.75;;;5.82;;
33714;SDS011;20043;50.998;4.754;2022-10-17T16:15:00;11.45;;;4.78;;
33714;SDS011;20043;50.998;4.754;2022-10-17T16:17:26;15.80;;;5.07;;
33714;SDS011;20043;50.998;4.754;2022-10-17T16:19:52;11.52;;;5.18;;
33714;SDS011;20043;50.998;4.754;2022-10-17T16:22:25;9.98;;;4.45;;
33714;SDS011;20043;50.998;4.754;2022-10-17T16:24:56;18.15;;;5.00;;
33714;SDS011;20043;50.998;4.754;2022-10-17T16:27:31;11.32;;;4.90;;
33714;SDS011;20043;50.998;4.754;2022-10-17T16:29:56;10.88;;;5.10;;
33714;SDS011;20043;50.998;4.754;2022-10-17T16:32:22;10.48;;;4.75;;
33714;SDS011;20043;50.998;4.754;2022-10-17T16:34:47;12.57;;;5.00;;
33714;SDS011;20043;50.998;4.754;2022-10-17T16:37:13;8.70;;;4.63;;
33714;SDS011;20043;50.998;4.754;2022-10-17T16:39:38;11.75;;;5.05;;
33714;SDS011;20043;50.998;4.754;2022-10-17T16:42:04;14.18;;;5.00;;
33714;SDS011;20043;50.998;4.754;2022-10-17T16:44:30;11.88;;;5.00;;
33714;SDS011;20043;50.998;4.754;2022-10-17T16:46:55;10.55;;;5.07;;
33714;SDS011;20043;50.998;4.754;2022-10-17T16:49:21;11.77;;;5.50;;
33714;SDS011;20043;50.998;4.754;2022-10-17T16:51:46;11.07;;;5.63;;
33714;SDS011;20043;50.998;4.754;2022-10-17T16:54:12;15.50;;;5.93;;
33714;SDS011;20043;50.998;4.754;2022-10-17T16:56:37;9.23;;;5.85;;
33714;SDS011;20043;50.998;4.754;2022-10-17T16:59:03;13.13;;;6.00;;
33714;SDS011;20043;50.998;4.754;2022-10-17T17:01:28;8.55;;;5.63;;